createdAt,value
2024-01-20T00:00:17.325Z,3.72
2024-01-20T00:02:45.400Z,4.10
2024-01-20T00:05:13.890Z,4.03
2024-01-20T00:07:44.048Z,3.90
2024-01-20T00:10:13.557Z,3.28
2024-01-20T00:12:43.360Z,4.25
2024-01-20T00:15:11.950Z,3.88
2024-01-20T00:17:42.041Z,3.88
2024-01-20T00:20:10.989Z,4.03
2024-01-20T00:22:39.657Z,4.32
2024-01-20T00:25:07.828Z,4.10
2024-01-20T00:27:35.799Z,3.72
2024-01-20T00:30:04.523Z,4.40
2024-01-20T00:32:32.917Z,3.92
2024-01-20T00:35:07.101Z,3.97
2024-01-20T00:37:36.944Z,4.18
2024-01-20T00:40:05.986Z,4.03
2024-01-20T00:42:33.853Z,3.97
2024-01-20T00:45:01.669Z,3.83
2024-01-20T00:47:29.465Z,4.03
2024-01-20T00:49:57.333Z,4.10
2024-01-20T00:52:25.147Z,3.30
2024-01-20T00:54:53.261Z,3.55
2024-01-20T00:57:21.085Z,3.10
2024-01-20T00:59:49.457Z,3.13
2024-01-20T01:02:20.058Z,3.05
2024-01-20T01:04:47.952Z,3.08
2024-01-20T01:07:15.802Z,2.80
2024-01-20T01:09:43.501Z,3.47
2024-01-20T01:12:11.554Z,3.20
2024-01-20T01:14:39.314Z,2.92
2024-01-20T01:17:07.431Z,2.80
2024-01-20T01:19:35.092Z,2.90
2024-01-20T01:22:03.614Z,3.00
2024-01-20T01:24:31.390Z,3.00
2024-01-20T01:26:59.088Z,3.40
2024-01-20T01:29:27.037Z,2.83
2024-01-20T01:31:54.737Z,2.80
2024-01-20T01:34:22.512Z,2.88
2024-01-20T01:36:50.234Z,2.65
2024-01-20T01:39:18.930Z,2.72
2024-01-20T01:41:46.688Z,2.67
2024-01-20T01:44:14.428Z,2.55
2024-01-20T01:46:42.436Z,2.80
2024-01-20T01:49:10.244Z,2.33
2024-01-20T01:51:38.097Z,2.50
2024-01-20T01:54:06.419Z,2.60
2024-01-20T01:56:34.210Z,2.47
2024-01-20T01:59:02.020Z,2.92
2024-01-20T02:01:29.783Z,2.20
2024-01-20T02:04:16.233Z,2.40
2024-01-20T02:06:44.125Z,2.33
2024-01-20T02:09:12.328Z,2.17
2024-01-20T02:11:40.316Z,2.50
2024-01-20T02:14:08.983Z,2.30
2024-01-20T02:16:36.630Z,2.83
2024-01-20T02:19:05.262Z,2.45
2024-01-20T02:21:37.744Z,2.45
2024-01-20T02:24:06.890Z,5.90
2024-01-20T02:26:34.662Z,3.17
2024-01-20T02:29:02.401Z,3.20
2024-01-20T02:31:30.224Z,2.50
2024-01-20T02:33:58.005Z,2.70
2024-01-20T02:36:25.782Z,2.50
2024-01-20T02:38:53.477Z,2.20
2024-01-20T02:41:21.193Z,2.20
2024-01-20T02:43:49.551Z,2.15
2024-01-20T02:46:17.284Z,2.05
2024-01-20T02:48:45.119Z,2.30
2024-01-20T02:51:13.898Z,2.10
2024-01-20T02:53:41.636Z,2.40
2024-01-20T02:56:09.706Z,2.53
2024-01-20T02:58:37.931Z,2.60
2024-01-20T03:01:07.650Z,2.67
2024-01-20T03:03:35.545Z,2.22
2024-01-20T03:06:03.855Z,2.30
2024-01-20T03:08:31.626Z,2.28
2024-01-20T03:10:59.342Z,2.60
2024-01-20T03:13:27.043Z,2.88
2024-01-20T03:15:54.774Z,2.60
2024-01-20T03:18:22.539Z,2.28
2024-01-20T03:20:50.808Z,2.40
2024-01-20T03:23:18.514Z,2.55
2024-01-20T03:25:46.184Z,3.00
2024-01-20T03:28:13.892Z,3.67
2024-01-20T03:30:41.639Z,4.00
2024-01-20T03:33:09.440Z,4.18
2024-01-20T03:35:37.269Z,4.60
2024-01-20T03:38:04.992Z,4.25
2024-01-20T03:40:32.972Z,3.70
2024-01-20T03:43:00.723Z,4.13
2024-01-20T03:45:28.460Z,3.50
2024-01-20T03:47:56.380Z,3.75
2024-01-20T03:50:24.331Z,3.65
2024-01-20T03:52:51.988Z,3.13
2024-01-20T03:55:19.665Z,3.13
2024-01-20T03:57:47.295Z,3.25
2024-01-20T04:00:15.283Z,2.95
2024-01-20T04:02:43.101Z,3.05
2024-01-20T04:05:11.246Z,2.90
2024-01-20T04:07:39.518Z,3.30
2024-01-20T04:10:07.673Z,2.88
2024-01-20T04:12:36.650Z,2.70
2024-01-20T04:15:04.598Z,2.97
2024-01-20T04:17:32.452Z,2.60
2024-01-20T04:20:00.206Z,2.30
2024-01-20T04:22:27.917Z,2.30
2024-01-20T04:24:55.589Z,2.72
2024-01-20T04:27:23.330Z,2.38
2024-01-20T04:29:51.189Z,2.38
2024-01-20T04:32:18.900Z,2.20
2024-01-20T04:34:46.606Z,2.42
2024-01-20T04:37:14.450Z,2.47
2024-01-20T04:39:42.967Z,2.30
2024-01-20T04:42:10.921Z,2.20
2024-01-20T04:44:38.643Z,2.35
2024-01-20T04:47:07.564Z,2.38
2024-01-20T04:49:35.384Z,2.08
2024-01-20T04:52:03.312Z,1.90
2024-01-20T04:54:31.557Z,1.90
2024-01-20T04:57:00.658Z,2.10
2024-01-20T04:59:28.463Z,2.13
2024-01-20T05:01:56.338Z,2.00
2024-01-20T05:04:25.542Z,1.90
2024-01-20T05:06:53.408Z,2.30
2024-01-20T05:09:21.311Z,2.20
2024-01-20T05:11:49.045Z,2.20
2024-01-20T05:14:16.796Z,2.42
2024-01-20T05:16:44.505Z,3.05
2024-01-20T05:19:13.328Z,3.63
2024-01-20T05:21:41.173Z,3.15
2024-01-20T05:24:09.272Z,2.63
2024-01-20T05:26:37.004Z,2.50
2024-01-20T05:29:04.683Z,2.42
2024-01-20T05:31:33.237Z,1.90
2024-01-20T05:34:01.551Z,2.35
2024-01-20T05:36:29.514Z,2.40
2024-01-20T05:38:57.513Z,2.58
2024-01-20T05:41:25.404Z,2.60
2024-01-20T05:43:54.360Z,2.60
2024-01-20T05:46:22.102Z,1.95
2024-01-20T05:48:50.284Z,2.13
2024-01-20T05:51:18.097Z,2.20
2024-01-20T05:53:45.798Z,1.70
2024-01-20T05:56:14.097Z,2.00
2024-01-20T05:58:42.468Z,1.73
2024-01-20T06:01:11.309Z,2.22
2024-01-20T06:03:39.240Z,2.13
2024-01-20T06:06:08.367Z,1.70
2024-01-20T06:08:37.101Z,2.50
2024-01-20T06:11:05.242Z,3.30
2024-01-20T06:13:32.936Z,3.22
2024-01-20T06:16:00.910Z,3.50
2024-01-20T06:18:28.602Z,3.58
2024-01-20T06:20:56.423Z,4.78
2024-01-20T06:23:24.184Z,4.05
2024-01-20T06:25:51.837Z,3.78
2024-01-20T06:28:21.749Z,3.42
2024-01-20T06:30:53.558Z,3.83
2024-01-20T06:33:21.375Z,3.97
2024-01-20T06:35:51.490Z,3.00
2024-01-20T06:38:19.400Z,2.90
2024-01-20T06:40:47.273Z,3.08
2024-01-20T06:43:15.031Z,3.28
2024-01-20T06:45:43.396Z,3.20
2024-01-20T06:48:11.364Z,2.72
2024-01-20T06:50:44.454Z,2.83
2024-01-20T06:53:12.641Z,2.72
2024-01-20T06:55:40.402Z,3.10
2024-01-20T06:58:08.472Z,3.20
2024-01-20T07:00:36.273Z,6.88
2024-01-20T07:03:05.410Z,14.15
2024-01-20T07:05:33.719Z,4.93
2024-01-20T07:08:04.089Z,3.50
2024-01-20T07:10:31.780Z,4.03
2024-01-20T07:12:59.880Z,5.78
2024-01-20T07:15:28.064Z,5.32
2024-01-20T07:17:58.831Z,4.85
2024-01-20T07:20:29.817Z,4.47
2024-01-20T07:22:57.484Z,4.00
2024-01-20T07:25:25.173Z,5.50
2024-01-20T07:27:52.977Z,3.80
2024-01-20T07:30:20.768Z,5.28
2024-01-20T07:32:48.685Z,5.55
2024-01-20T07:35:16.446Z,5.75
2024-01-20T07:37:44.120Z,5.47
2024-01-20T07:40:12.023Z,5.88
2024-01-20T07:42:41.627Z,5.32
2024-01-20T07:45:10.253Z,4.75
2024-01-20T07:47:38.112Z,5.43
2024-01-20T07:50:05.848Z,5.93
2024-01-20T07:52:34.399Z,6.30
2024-01-20T07:55:03.174Z,11.90
2024-01-20T07:57:33.247Z,5.80
2024-01-20T08:00:01.253Z,5.15
2024-01-20T08:02:29.022Z,4.78
2024-01-20T08:04:56.777Z,4.97
2024-01-20T08:07:24.436Z,5.00
2024-01-20T08:09:52.201Z,5.90
2024-01-20T08:12:19.946Z,4.45
2024-01-20T08:14:47.744Z,5.18
2024-01-20T08:17:15.429Z,5.90
2024-01-20T08:19:43.309Z,5.15
2024-01-20T08:22:11.941Z,5.55
2024-01-20T08:24:39.640Z,17.63
2024-01-20T08:27:07.358Z,15.15
2024-01-20T08:29:35.177Z,4.97
2024-01-20T08:32:02.906Z,4.60
2024-01-20T08:34:30.636Z,4.30
2024-01-20T08:36:58.385Z,3.47
2024-01-20T08:39:26.165Z,4.15
2024-01-20T08:41:54.615Z,3.92
2024-01-20T08:44:22.306Z,4.03
2024-01-20T08:46:50.068Z,3.97
2024-01-20T08:49:17.780Z,4.03
2024-01-20T08:51:45.899Z,3.92
2024-01-20T08:54:13.657Z,3.58
2024-01-20T08:56:41.374Z,3.80
2024-01-20T08:59:09.665Z,3.25
2024-01-20T09:01:37.343Z,3.55
2024-01-20T09:04:05.237Z,3.20
2024-01-20T09:06:33.255Z,4.00
2024-01-20T09:09:01.048Z,4.30
2024-01-20T09:11:28.995Z,2.97
2024-01-20T09:13:57.086Z,3.10
2024-01-20T09:16:24.809Z,3.15
2024-01-20T09:18:53.133Z,2.85
2024-01-20T09:21:21.049Z,2.88
2024-01-20T09:23:48.940Z,63.08
2024-01-20T09:26:17.035Z,4.88
2024-01-20T09:28:45.070Z,2.92
2024-01-20T09:31:13.012Z,3.10
2024-01-20T09:33:43.467Z,3.80
2024-01-20T09:36:11.655Z,3.50
2024-01-20T09:38:39.360Z,3.50
2024-01-20T09:41:11.038Z,3.40
2024-01-20T09:43:40.569Z,3.80
2024-01-20T09:46:08.794Z,2.80
2024-01-20T09:48:36.878Z,2.60
2024-01-20T09:51:04.830Z,2.60
2024-01-20T09:53:32.662Z,2.15
2024-01-20T09:56:00.704Z,1.80
2024-01-20T09:58:29.765Z,2.22
2024-01-20T10:00:57.898Z,2.03
2024-01-20T10:03:28.182Z,1.83
2024-01-20T10:05:58.862Z,2.00
2024-01-20T10:08:26.983Z,2.53
2024-01-20T10:11:07.648Z,2.90
2024-01-20T10:13:35.480Z,1.90
2024-01-20T10:16:04.735Z,1.60
2024-01-20T10:18:32.521Z,1.40
2024-01-20T10:21:07.366Z,2.42
2024-01-20T10:23:37.234Z,1.35
2024-01-20T10:26:08.694Z,1.42
2024-01-20T10:28:39.181Z,1.75
2024-01-20T10:31:08.218Z,1.45
2024-01-20T10:33:36.292Z,1.35
2024-01-20T10:36:05.310Z,1.30
2024-01-20T10:38:38.149Z,1.52
2024-01-20T10:41:06.293Z,1.55
2024-01-20T10:43:40.496Z,1.15
2024-01-20T10:46:24.581Z,1.33
2024-01-20T10:48:55.034Z,1.40
2024-01-20T10:51:33.153Z,1.50
2024-01-20T10:54:01.378Z,1.25
2024-01-20T10:56:29.222Z,1.80
2024-01-20T10:59:18.296Z,1.38
2024-01-20T11:01:47.077Z,1.52
2024-01-20T11:04:21.312Z,1.05
2024-01-20T11:06:49.378Z,1.60
2024-01-20T11:09:23.440Z,1.25
2024-01-20T11:12:01.927Z,1.63
2024-01-20T11:14:33.094Z,62.92
2024-01-20T11:17:10.429Z,2.83
2024-01-20T11:19:38.361Z,1.58
2024-01-20T11:22:06.908Z,1.48
2024-01-20T11:24:39.406Z,1.60
2024-01-20T11:27:07.867Z,1.75
2024-01-20T11:29:36.022Z,1.63
2024-01-20T11:32:04.103Z,2.00
2024-01-20T11:34:31.921Z,1.95
2024-01-20T11:37:01.196Z,2.25
2024-01-20T11:39:28.994Z,1.65
2024-01-20T11:42:04.190Z,2.13
2024-01-20T11:44:33.482Z,1.70
2024-01-20T11:47:01.230Z,1.98
2024-01-20T11:49:35.912Z,1.50
2024-01-20T11:52:04.129Z,1.60
2024-01-20T11:54:31.822Z,1.38
2024-01-20T11:56:59.660Z,1.73
2024-01-20T11:59:27.599Z,1.33
2024-01-20T12:01:55.413Z,1.50
2024-01-20T12:04:23.243Z,1.48
2024-01-20T12:06:51.144Z,1.83
2024-01-20T12:09:18.962Z,1.42
2024-01-20T12:11:46.785Z,1.50
2024-01-20T12:14:14.541Z,2.10
2024-01-20T12:16:42.333Z,1.80
2024-01-20T12:19:10.104Z,1.52
2024-01-20T12:21:38.037Z,3.30
2024-01-20T12:24:15.187Z,4.88
2024-01-20T12:26:48.661Z,2.17
2024-01-20T12:29:16.396Z,1.45
2024-01-20T12:31:44.222Z,1.30
2024-01-20T12:34:11.994Z,1.45
2024-01-20T12:36:39.825Z,18.63
2024-01-20T12:39:08.981Z,1.33
2024-01-20T12:41:36.716Z,1.35
2024-01-20T12:44:04.483Z,1.30
2024-01-20T12:46:32.225Z,0.93
2024-01-20T12:49:00.000Z,0.80
2024-01-20T12:51:27.858Z,1.10
2024-01-20T12:53:55.901Z,1.05
2024-01-20T12:56:23.661Z,1.35
2024-01-20T12:58:51.513Z,1.15
2024-01-20T13:01:21.155Z,1.20
2024-01-20T13:03:48.933Z,1.38
2024-01-20T13:06:16.826Z,1.63
2024-01-20T13:08:44.760Z,1.23
2024-01-20T13:11:13.003Z,1.50
2024-01-20T13:13:41.853Z,1.25
2024-01-20T13:16:09.856Z,1.33
2024-01-20T13:18:42.124Z,1.52
2024-01-20T13:21:10.036Z,1.20
2024-01-20T13:23:37.829Z,1.55
2024-01-20T13:26:05.624Z,1.20
2024-01-20T13:28:34.478Z,1.30
2024-01-20T13:31:02.535Z,1.63
2024-01-20T13:33:30.435Z,1.10
2024-01-20T13:35:58.280Z,1.33
2024-01-20T13:38:26.020Z,1.20
2024-01-20T13:40:53.716Z,1.40
2024-01-20T13:43:21.700Z,1.58
2024-01-20T13:45:49.508Z,1.48
2024-01-20T13:48:17.319Z,1.10
2024-01-20T13:50:45.100Z,1.50
2024-01-20T13:53:12.896Z,1.30
2024-01-20T13:55:40.910Z,1.30
2024-01-20T13:58:08.763Z,1.30
2024-01-20T14:00:36.558Z,1.48
2024-01-20T14:03:04.515Z,1.33
2024-01-20T14:05:32.164Z,1.20
2024-01-20T14:07:59.920Z,1.15
2024-01-20T14:10:27.787Z,1.92
2024-01-20T14:12:55.511Z,1.30
2024-01-20T14:15:23.534Z,1.20
2024-01-20T14:17:51.365Z,1.10
2024-01-20T14:20:19.641Z,1.15
2024-01-20T14:22:47.384Z,1.10
2024-01-20T14:25:17.717Z,0.90
2024-01-20T14:27:45.837Z,0.98
2024-01-20T14:30:14.027Z,1.00
2024-01-20T14:32:41.920Z,1.20
2024-01-20T14:35:09.821Z,0.90
2024-01-20T14:37:37.519Z,1.00
2024-01-20T14:40:06.141Z,3.65
2024-01-20T14:42:34.050Z,1.00
2024-01-20T14:45:01.728Z,0.90
2024-01-20T14:47:29.445Z,0.93
2024-01-20T14:49:57.361Z,1.27
2024-01-20T14:52:25.150Z,0.90
2024-01-20T14:54:52.997Z,1.02
2024-01-20T14:57:20.955Z,1.45
2024-01-20T14:59:49.210Z,1.17
2024-01-20T15:02:21.188Z,1.10
2024-01-20T15:04:58.627Z,1.20
2024-01-20T15:07:26.566Z,1.50
2024-01-20T15:09:54.370Z,1.50
2024-01-20T15:12:22.448Z,1.70
2024-01-20T15:14:53.844Z,1.10
2024-01-20T15:17:21.607Z,1.30
2024-01-20T15:19:49.534Z,1.88
2024-01-20T15:22:18.720Z,1.88
2024-01-20T15:24:46.776Z,1.48
2024-01-20T15:30:51.554Z,1.50
2024-01-20T15:33:22.663Z,1.85
2024-01-20T15:35:53.609Z,1.50
2024-01-20T15:38:25.169Z,1.20
2024-01-20T15:40:57.162Z,1.40
2024-01-20T15:43:25.013Z,1.40
2024-01-20T15:45:53.081Z,1.70
2024-01-20T15:48:21.297Z,1.50
2024-01-20T15:50:49.022Z,2.08
2024-01-20T15:53:16.660Z,1.42
2024-01-20T15:55:44.452Z,1.52
2024-01-20T15:58:12.146Z,1.48
2024-01-20T16:00:39.992Z,1.88
2024-01-20T16:03:07.984Z,1.73
2024-01-20T16:05:35.959Z,1.77
2024-01-20T16:08:03.641Z,2.03
2024-01-20T16:10:31.312Z,1.80
2024-01-20T16:12:59.062Z,1.30
2024-01-20T16:15:26.740Z,5.45
2024-01-20T16:17:54.644Z,3.05
2024-01-20T16:20:22.748Z,2.30
2024-01-20T16:22:50.445Z,2.13
2024-01-20T16:25:18.582Z,1.73
2024-01-20T16:27:46.298Z,2.08
2024-01-20T16:30:14.145Z,2.10
2024-01-20T16:32:41.862Z,1.80
2024-01-20T16:35:09.949Z,1.83
2024-01-20T16:37:37.734Z,1.80
2024-01-20T16:40:05.660Z,2.25
2024-01-20T16:42:33.513Z,2.20
2024-01-20T16:45:01.248Z,2.15
2024-01-20T16:47:28.976Z,35.20
2024-01-20T16:49:57.362Z,5.93
2024-01-20T16:52:25.161Z,5.13
2024-01-20T16:54:53.065Z,4.18
2024-01-20T16:57:20.871Z,4.68
2024-01-20T16:59:50.813Z,4.35
2024-01-20T17:02:19.697Z,4.63
2024-01-20T17:04:47.834Z,4.15
2024-01-20T17:07:15.754Z,3.97
2024-01-20T17:09:43.967Z,4.25
2024-01-20T17:12:12.221Z,5.57
2024-01-20T17:14:40.416Z,5.20
2024-01-20T17:17:08.103Z,5.45
2024-01-20T17:19:35.996Z,6.40
2024-01-20T17:22:04.023Z,7.25
2024-01-20T17:24:34.706Z,6.85
2024-01-20T17:27:03.310Z,6.72
2024-01-20T17:29:31.291Z,6.07
2024-01-20T17:32:02.003Z,7.28
2024-01-20T17:34:30.047Z,6.80
2024-01-20T17:36:58.496Z,6.10
2024-01-20T17:39:26.466Z,6.05
2024-01-20T17:41:54.245Z,7.15
2024-01-20T17:44:21.866Z,7.97
2024-01-20T17:46:49.628Z,7.80
2024-01-20T17:49:17.392Z,7.43
2024-01-20T17:51:45.320Z,8.10
2024-01-20T17:54:13.522Z,7.25
2024-01-20T17:56:41.206Z,6.88
2024-01-20T17:59:08.907Z,6.88
2024-01-20T18:01:36.711Z,6.88
2024-01-20T18:04:05.321Z,8.23
2024-01-20T18:06:33.400Z,8.27
2024-01-20T18:09:01.409Z,9.07
2024-01-20T18:11:29.081Z,9.55
2024-01-20T18:13:56.842Z,9.32
2024-01-20T18:16:24.726Z,11.77
2024-01-20T18:18:52.516Z,11.73
2024-01-20T18:21:20.847Z,11.00
2024-01-20T18:23:48.754Z,9.90
2024-01-20T18:26:16.473Z,8.98
2024-01-20T18:28:44.183Z,9.85
2024-01-20T18:31:12.953Z,7.43
2024-01-20T18:33:40.796Z,7.18
2024-01-20T18:36:09.286Z,7.97
2024-01-20T18:38:37.140Z,8.25
2024-01-20T18:41:04.861Z,8.13
2024-01-20T18:43:32.481Z,7.90
2024-01-20T18:46:05.179Z,7.28
2024-01-20T18:48:33.311Z,9.13
2024-01-20T18:51:01.077Z,9.40
2024-01-20T18:53:28.781Z,9.50
2024-01-20T18:55:57.246Z,9.23
2024-01-20T18:58:25.677Z,9.48
2024-01-20T19:00:53.844Z,9.13
2024-01-20T19:03:21.654Z,13.35
2024-01-20T19:05:49.445Z,14.80
2024-01-20T19:08:17.143Z,9.98
2024-01-20T19:10:44.859Z,11.25
2024-01-20T19:13:12.660Z,10.15
2024-01-20T19:15:40.509Z,9.95
2024-01-20T19:18:08.441Z,11.13
2024-01-20T19:20:41.063Z,8.90
2024-01-20T19:23:08.936Z,8.13
2024-01-20T19:25:39.280Z,8.30
2024-01-20T19:28:07.126Z,7.50
2024-01-20T19:30:34.938Z,8.15
2024-01-20T19:33:05.897Z,10.10
2024-01-20T19:35:34.276Z,9.65
2024-01-20T19:38:02.565Z,10.52
2024-01-20T19:40:31.267Z,10.20
2024-01-20T19:42:59.048Z,10.73
2024-01-20T19:45:26.960Z,10.90
2024-01-20T19:47:54.790Z,9.68
2024-01-20T19:50:22.568Z,9.85
2024-01-20T19:52:50.428Z,12.10
2024-01-20T19:55:20.488Z,10.93
2024-01-20T19:57:48.237Z,9.55
2024-01-20T20:00:20.803Z,9.48
2024-01-20T20:02:48.941Z,9.75
2024-01-20T20:05:16.892Z,11.10
2024-01-20T20:07:44.817Z,10.65
2024-01-20T20:10:12.557Z,9.82
2024-01-20T20:12:40.391Z,9.80
2024-01-20T20:15:10.143Z,12.27
2024-01-20T20:17:37.976Z,16.92
2024-01-20T20:20:06.053Z,11.25
2024-01-20T20:22:33.998Z,10.20
2024-01-20T20:25:01.738Z,11.88
2024-01-20T20:27:29.824Z,13.32
2024-01-20T20:29:57.625Z,14.23
2024-01-20T20:32:25.734Z,13.38
2024-01-20T20:35:01.849Z,16.17
2024-01-20T20:37:32.694Z,14.82
2024-01-20T20:40:00.576Z,20.20
2024-01-20T20:42:28.484Z,15.65
2024-01-20T20:44:56.390Z,13.63
2024-01-20T20:47:24.105Z,14.13
2024-01-20T20:49:52.314Z,15.48
2024-01-20T20:52:20.166Z,14.60
2024-01-20T20:54:48.036Z,14.88
2024-01-20T20:57:15.869Z,15.20
2024-01-20T20:59:45.435Z,15.65
2024-01-20T21:02:13.607Z,22.05
2024-01-20T21:04:41.438Z,20.58
2024-01-20T21:07:09.398Z,28.80
2024-01-20T21:09:37.323Z,28.42
2024-01-20T21:12:05.212Z,16.92
2024-01-20T21:14:32.991Z,14.48
2024-01-20T21:17:00.739Z,15.40
2024-01-20T21:19:28.526Z,14.70
2024-01-20T21:21:56.350Z,15.20
2024-01-20T21:24:25.506Z,13.73
2024-01-20T21:26:53.285Z,14.88
2024-01-20T21:29:20.990Z,14.52
2024-01-20T21:31:48.792Z,14.45
2024-01-20T21:34:16.669Z,14.43
2024-01-20T21:36:44.547Z,15.60
2024-01-20T21:39:13.208Z,14.15
2024-01-20T21:41:41.011Z,16.08
2024-01-20T21:44:08.959Z,14.65
2024-01-20T21:46:37.027Z,14.63
2024-01-20T21:49:05.648Z,14.63
2024-01-20T21:51:33.713Z,15.02
2024-01-20T21:54:01.714Z,14.98
2024-01-20T21:56:29.416Z,14.90
2024-01-20T21:58:57.196Z,14.52
2024-01-20T22:01:25.136Z,15.45
2024-01-20T22:03:53.080Z,15.32
2024-01-20T22:06:20.882Z,16.40
2024-01-20T22:08:48.767Z,18.65
2024-01-20T22:11:16.437Z,25.70
2024-01-20T22:13:44.117Z,18.13
2024-01-20T22:16:11.912Z,17.85
2024-01-20T22:18:39.904Z,15.50
2024-01-20T22:21:12.365Z,14.77
2024-01-20T22:23:40.145Z,16.25
2024-01-20T22:26:07.974Z,17.55
2024-01-20T22:28:35.731Z,16.40
2024-01-20T22:31:03.463Z,16.08
2024-01-20T22:33:32.144Z,16.92
2024-01-20T22:36:00.100Z,16.50
2024-01-20T22:38:29.446Z,16.38
2024-01-20T22:40:57.669Z,17.27
2024-01-20T22:43:25.413Z,17.17
2024-01-20T22:45:53.313Z,16.25
2024-01-20T22:48:21.200Z,16.70
2024-01-20T22:50:49.004Z,17.00
2024-01-20T22:53:16.635Z,16.77
2024-01-20T22:55:44.397Z,16.63
2024-01-20T22:58:12.692Z,17.08
2024-01-20T23:00:41.971Z,17.00
2024-01-20T23:03:09.902Z,16.05
2024-01-20T23:05:38.841Z,15.90
2024-01-20T23:08:06.781Z,16.17
2024-01-20T23:10:34.534Z,16.02
2024-01-20T23:13:02.379Z,16.48
2024-01-20T23:15:30.422Z,16.73
2024-01-20T23:17:58.101Z,17.75
2024-01-20T23:20:25.876Z,15.93
2024-01-20T23:22:53.598Z,16.45
2024-01-20T23:25:21.339Z,17.67
2024-01-20T23:27:49.119Z,16.95
2024-01-20T23:30:17.165Z,17.15
2024-01-20T23:32:44.984Z,17.85
2024-01-20T23:35:12.769Z,18.45
2024-01-20T23:37:40.502Z,16.63
2024-01-20T23:40:08.437Z,16.17
2024-01-20T23:42:36.941Z,17.20
2024-01-20T23:45:04.817Z,17.13
2024-01-20T23:47:32.595Z,17.33
2024-01-20T23:50:01.662Z,17.67
2024-01-20T23:52:29.366Z,17.20
2024-01-20T23:54:57.088Z,16.83
2024-01-20T23:57:24.848Z,17.27
2024-01-20T23:59:52.658Z,17.00
